sensor_id;sensor_type;location;lat;lon;timestamp;temperature;humidity
15844;DHT22;50807;52.436;13.346;2023-08-20T00:00:19;30.40;81.00
15844;DHT22;50807;52.436;13.346;2023-08-20T00:00:51;30.40;81.00
15844;DHT22;50807;52.436;13.346;2023-08-20T00:01:25;30.40;81.00
15844;DHT22;50807;52.436;13.346;2023-08-20T00:01:58;30.40;81.00
15844;DHT22;50807;52.436;13.346;2023-08-20T00:02:33;30.40;81.10
15844;DHT22;50807;52.436;13.346;2023-08-20T00:03:10;30.40;81.10
15844;DHT22;50807;52.436;13.346;2023-08-20T00:03:42;30.40;81.20
15844;DHT22;50807;52.436;13.346;2023-08-20T00:04:14;30.30;81.10
15844;DHT22;50807;52.436;13.346;2023-08-20T00:04:48;30.40;81.30
15844;DHT22;50807;52.436;13.346;2023-08-20T00:05:19;30.30;81.20
15844;DHT22;50807;52.436;13.346;2023-08-20T00:05:51;30.30;81.30
15844;DHT22;50807;52.436;13.346;2023-08-20T00:06:23;30.30;81.20
15844;DHT22;50807;52.436;13.346;2023-08-20T00:06:56;30.30;82.00
15844;DHT22;50807;52.436;13.346;2023-08-20T00:07:27;30.30;81.30
15844;DHT22;50807;52.436;13.346;2023-08-20T00:07:58;30.30;81.40
15844;DHT22;50807;52.436;13.346;2023-08-20T00:08:29;30.30;81.40
15844;DHT22;50807;52.436;13.346;2023-08-20T00:09:01;30.30;81.50
15844;DHT22;50807;52.436;13.346;2023-08-20T00:09:33;30.30;81.50
15844;DHT22;50807;52.436;13.346;2023-08-20T00:10:05;30.30;81.60
15844;DHT22;50807;52.436;13.346;2023-08-20T00:10:37;30.30;81.70
15844;DHT22;50807;52.436;13.346;2023-08-20T00:11:08;30.30;81.70
15844;DHT22;50807;52.436;13.346;2023-08-20T00:11:40;30.20;81.60
15844;DHT22;50807;52.436;13.346;2023-08-20T00:12:10;30.20;81.70
15844;DHT22;50807;52.436;13.346;2023-08-20T00:12:41;30.30;81.80
15844;DHT22;50807;52.436;13.346;2023-08-20T00:13:12;30.20;81.70
15844;DHT22;50807;52.436;13.346;2023-08-20T00:13:44;30.20;81.80
15844;DHT22;50807;52.436;13.346;2023-08-20T00:14:15;30.20;81.90
15844;DHT22;50807;52.436;13.346;2023-08-20T00:14:55;30.20;82.00
15844;DHT22;50807;52.436;13.346;2023-08-20T00:15:28;30.20;82.00
15844;DHT22;50807;52.436;13.346;2023-08-20T00:16:00;30.20;81.90
15844;DHT22;50807;52.436;13.346;2023-08-20T00:16:33;30.10;81.90
15844;DHT22;50807;52.436;13.346;2023-08-20T00:17:04;30.10;81.90
15844;DHT22;50807;52.436;13.346;2023-08-20T00:17:37;30.10;82.00
15844;DHT22;50807;52.436;13.346;2023-08-20T00:18:10;30.10;82.00
15844;DHT22;50807;52.436;13.346;2023-08-20T00:18:42;30.10;82.00
15844;DHT22;50807;52.436;13.346;2023-08-20T00:19:14;30.10;82.10
15844;DHT22;50807;52.436;13.346;2023-08-20T00:19:45;30.00;82.00
15844;DHT22;50807;52.436;13.346;2023-08-20T00:20:17;30.10;82.20
15844;DHT22;50807;52.436;13.346;2023-08-20T00:20:49;30.00;82.20
15844;DHT22;50807;52.436;13.346;2023-08-20T00:21:20;30.00;82.20
15844;DHT22;50807;52.436;13.346;2023-08-20T00:21:52;30.00;82.30
15844;DHT22;50807;52.436;13.346;2023-08-20T00:22:24;29.90;82.30
15844;DHT22;50807;52.436;13.346;2023-08-20T00:22:56;29.90;82.50
15844;DHT22;50807;52.436;13.346;2023-08-20T00:23:28;29.90;82.50
15844;DHT22;50807;52.436;13.346;2023-08-20T00:24:00;29.90;82.60
15844;DHT22;50807;52.436;13.346;2023-08-20T00:24:33;29.90;82.70
15844;DHT22;50807;52.436;13.346;2023-08-20T00:25:05;29.90;82.80
15844;DHT22;50807;52.436;13.346;2023-08-20T00:25:38;29.90;82.80
15844;DHT22;50807;52.436;13.346;2023-08-20T00:26:10;29.80;82.80
15844;DHT22;50807;52.436;13.346;2023-08-20T00:26:42;29.80;82.90
15844;DHT22;50807;52.436;13.346;2023-08-20T00:27:13;29.80;83.00
15844;DHT22;50807;52.436;13.346;2023-08-20T00:27:44;29.80;83.20
15844;DHT22;50807;52.436;13.346;2023-08-20T00:28:16;29.80;83.30
15844;DHT22;50807;52.436;13.346;2023-08-20T00:28:46;29.80;83.40
15844;DHT22;50807;52.436;13.346;2023-08-20T00:29:17;29.80;83.50
15844;DHT22;50807;52.436;13.346;2023-08-20T00:29:49;29.80;83.70
15844;DHT22;50807;52.436;13.346;2023-08-20T00:30:20;29.80;83.70
15844;DHT22;50807;52.436;13.346;2023-08-20T00:30:51;29.70;83.80
15844;DHT22;50807;52.436;13.346;2023-08-20T00:31:22;29.80;84.00
15844;DHT22;50807;52.436;13.346;2023-08-20T00:31:53;29.80;84.20
15844;DHT22;50807;52.436;13.346;2023-08-20T00:32:24;29.70;84.20
15844;DHT22;50807;52.436;13.346;2023-08-20T00:32:55;29.70;84.20
15844;DHT22;50807;52.436;13.346;2023-08-20T00:33:26;29.70;84.40
15844;DHT22;50807;52.436;13.346;2023-08-20T00:33:57;29.70;84.50
15844;DHT22;50807;52.436;13.346;2023-08-20T00:34:28;29.70;84.60
15844;DHT22;50807;52.436;13.346;2023-08-20T00:34:59;29.70;84.60
15844;DHT22;50807;52.436;13.346;2023-08-20T00:35:29;29.70;84.80
15844;DHT22;50807;52.436;13.346;2023-08-20T00:36:02;29.70;84.90
15844;DHT22;50807;52.436;13.346;2023-08-20T00:36:33;29.70;85.00
15844;DHT22;50807;52.436;13.346;2023-08-20T00:37:03;29.60;84.90
15844;DHT22;50807;52.436;13.346;2023-08-20T00:37:34;29.60;85.00
15844;DHT22;50807;52.436;13.346;2023-08-20T00:38:06;29.60;85.00
15844;DHT22;50807;52.436;13.346;2023-08-20T00:38:38;29.60;85.10
15844;DHT22;50807;52.436;13.346;2023-08-20T00:39:08;29.60;85.10
15844;DHT22;50807;52.436;13.346;2023-08-20T00:39:40;29.60;85.20
15844;DHT22;50807;52.436;13.346;2023-08-20T00:40:11;29.60;85.30
15844;DHT22;50807;52.436;13.346;2023-08-20T00:40:43;29.60;85.30
15844;DHT22;50807;52.436;13.346;2023-08-20T00:41:14;29.60;85.30
15844;DHT22;50807;52.436;13.346;2023-08-20T00:41:45;29.60;86.20
15844;DHT22;50807;52.436;13.346;2023-08-20T00:42:15;29.50;85.50
15844;DHT22;50807;52.436;13.346;2023-08-20T00:42:46;29.50;85.60
15844;DHT22;50807;52.436;13.346;2023-08-20T00:43:18;29.50;85.70
15844;DHT22;50807;52.436;13.346;2023-08-20T00:43:49;29.60;85.90
15844;DHT22;50807;52.436;13.346;2023-08-20T00:44:19;29.60;85.90
15844;DHT22;50807;52.436;13.346;2023-08-20T00:44:50;29.60;86.10
15844;DHT22;50807;52.436;13.346;2023-08-20T00:45:23;29.60;86.10
15844;DHT22;50807;52.436;13.346;2023-08-20T00:45:54;29.50;86.10
15844;DHT22;50807;52.436;13.346;2023-08-20T00:46:25;29.50;86.10
15844;DHT22;50807;52.436;13.346;2023-08-20T00:46:57;29.50;86.20
15844;DHT22;50807;52.436;13.346;2023-08-20T00:47:30;29.50;86.90
15844;DHT22;50807;52.436;13.346;2023-08-20T00:48:02;29.50;86.30
15844;DHT22;50807;52.436;13.346;2023-08-20T00:48:34;29.50;86.30
15844;DHT22;50807;52.436;13.346;2023-08-20T00:49:06;29.50;86.40
15844;DHT22;50807;52.436;13.346;2023-08-20T00:49:37;29.50;86.30
15844;DHT22;50807;52.436;13.346;2023-08-20T00:50:09;29.50;86.40
15844;DHT22;50807;52.436;13.346;2023-08-20T00:50:40;29.50;86.40
15844;DHT22;50807;52.436;13.346;2023-08-20T00:51:12;29.50;86.50
15844;DHT22;50807;52.436;13.346;2023-08-20T00:51:43;29.50;86.50
15844;DHT22;50807;52.436;13.346;2023-08-20T00:52:16;29.50;86.50
15844;DHT22;50807;52.436;13.346;2023-08-20T00:52:48;29.50;86.60
15844;DHT22;50807;52.436;13.346;2023-08-20T00:53:20;29.40;86.60
15844;DHT22;50807;52.436;13.346;2023-08-20T00:53:51;29.40;86.60
15844;DHT22;50807;52.436;13.346;2023-08-20T00:54:22;29.40;86.80
15844;DHT22;50807;52.436;13.346;2023-08-20T00:54:54;29.40;86.80
15844;DHT22;50807;52.436;13.346;2023-08-20T00:55:27;29.40;87.00
15844;DHT22;50807;52.436;13.346;2023-08-20T00:55:58;29.40;87.10
15844;DHT22;50807;52.436;13.346;2023-08-20T00:56:29;29.40;87.00
15844;DHT22;50807;52.436;13.346;2023-08-20T00:57:01;29.40;87.10
15844;DHT22;50807;52.436;13.346;2023-08-20T00:57:32;29.40;87.10
15844;DHT22;50807;52.436;13.346;2023-08-20T00:58:04;29.40;87.20
15844;DHT22;50807;52.436;13.346;2023-08-20T00:58:35;29.40;87.30
15844;DHT22;50807;52.436;13.346;2023-08-20T00:59:07;29.30;87.30
15844;DHT22;50807;52.436;13.346;2023-08-20T00:59:38;29.40;87.40
15844;DHT22;50807;52.436;13.346;2023-08-20T01:00:09;29.30;87.50
15844;DHT22;50807;52.436;13.346;2023-08-20T01:00:41;29.30;87.50
15844;DHT22;50807;52.436;13.346;2023-08-20T01:01:12;29.40;87.70
15844;DHT22;50807;52.436;13.346;2023-08-20T01:01:43;29.30;87.60
15844;DHT22;50807;52.436;13.346;2023-08-20T01:02:15;29.40;87.80
15844;DHT22;50807;52.436;13.346;2023-08-20T01:02:46;29.30;87.80
15844;DHT22;50807;52.436;13.346;2023-08-20T01:03:18;29.40;88.00
15844;DHT22;50807;52.436;13.346;2023-08-20T01:03:49;29.30;87.90
15844;DHT22;50807;52.436;13.346;2023-08-20T01:04:19;29.40;88.10
15844;DHT22;50807;52.436;13.346;2023-08-20T01:04:50;29.30;88.10
15844;DHT22;50807;52.436;13.346;2023-08-20T01:05:22;29.30;88.20
15844;DHT22;50807;52.436;13.346;2023-08-20T01:06:01;29.40;88.40
15844;DHT22;50807;52.436;13.346;2023-08-20T01:06:46;29.40;88.50
15844;DHT22;50807;52.436;13.346;2023-08-20T01:07:30;29.30;88.50
15844;DHT22;50807;52.436;13.346;2023-08-20T01:08:18;29.30;88.50
15844;DHT22;50807;52.436;13.346;2023-08-20T01:09:01;29.40;88.60
15844;DHT22;50807;52.436;13.346;2023-08-20T01:09:46;29.40;88.60
15844;DHT22;50807;52.436;13.346;2023-08-20T01:10:28;29.40;88.60
15844;DHT22;50807;52.436;13.346;2023-08-20T01:11:08;29.40;88.60
15844;DHT22;50807;52.436;13.346;2023-08-20T01:11:59;29.40;88.60
15844;DHT22;50807;52.436;13.346;2023-08-20T01:12:34;29.40;88.60
15844;DHT22;50807;52.436;13.346;2023-08-20T01:13:06;29.40;88.60
15844;DHT22;50807;52.436;13.346;2023-08-20T01:13:39;29.40;88.60
15844;DHT22;50807;52.436;13.346;2023-08-20T01:14:14;29.40;88.70
15844;DHT22;50807;52.436;13.346;2023-08-20T01:14:46;29.40;88.90
15844;DHT22;50807;52.436;13.346;2023-08-20T01:15:16;29.40;88.90
15844;DHT22;50807;52.436;13.346;2023-08-20T01:15:48;29.40;89.00
15844;DHT22;50807;52.436;13.346;2023-08-20T01:16:19;29.40;89.20
15844;DHT22;50807;52.436;13.346;2023-08-20T01:16:50;29.30;89.20
15844;DHT22;50807;52.436;13.346;2023-08-20T01:17:20;29.30;89.30
15844;DHT22;50807;52.436;13.346;2023-08-20T01:17:52;29.30;89.40
15844;DHT22;50807;52.436;13.346;2023-08-20T01:18:23;29.30;89.50
15844;DHT22;50807;52.436;13.346;2023-08-20T01:18:55;29.30;89.70
15844;DHT22;50807;52.436;13.346;2023-08-20T01:19:26;29.40;89.90
15844;DHT22;50807;52.436;13.346;2023-08-20T01:19:58;29.30;89.90
15844;DHT22;50807;52.436;13.346;2023-08-20T01:20:34;29.30;89.90
15844;DHT22;50807;52.436;13.346;2023-08-20T01:21:20;29.30;90.00
15844;DHT22;50807;52.436;13.346;2023-08-20T01:22:11;29.30;90.10
15844;DHT22;50807;52.436;13.346;2023-08-20T01:23:08;29.30;90.10
15844;DHT22;50807;52.436;13.346;2023-08-20T01:24:10;29.30;90.10
15844;DHT22;50807;52.436;13.346;2023-08-20T01:24:51;29.30;90.00
15844;DHT22;50807;52.436;13.346;2023-08-20T01:25:47;29.30;90.00
15844;DHT22;50807;52.436;13.346;2023-08-20T01:26:40;29.30;90.10
15844;DHT22;50807;52.436;13.346;2023-08-20T01:27:35;29.30;90.10
15844;DHT22;50807;52.436;13.346;2023-08-20T01:28:23;29.30;90.10
15844;DHT22;50807;52.436;13.346;2023-08-20T01:28:56;29.30;90.10
15844;DHT22;50807;52.436;13.346;2023-08-20T01:29:27;29.30;90.10
15844;DHT22;50807;52.436;13.346;2023-08-20T01:30:00;29.30;90.10
15844;DHT22;50807;52.436;13.346;2023-08-20T01:30:34;29.30;90.20
15844;DHT22;50807;52.436;13.346;2023-08-20T01:31:06;29.30;90.60
15844;DHT22;50807;52.436;13.346;2023-08-20T01:31:38;29.30;90.50
15844;DHT22;50807;52.436;13.346;2023-08-20T01:32:12;29.20;90.40
15844;DHT22;50807;52.436;13.346;2023-08-20T01:32:43;29.30;90.50
15844;DHT22;50807;52.436;13.346;2023-08-20T01:33:15;29.20;90.50
15844;DHT22;50807;52.436;13.346;2023-08-20T01:33:47;29.20;90.60
15844;DHT22;50807;52.436;13.346;2023-08-20T01:34:19;29.20;90.60
15844;DHT22;50807;52.436;13.346;2023-08-20T01:34:50;29.20;90.70
15844;DHT22;50807;52.436;13.346;2023-08-20T01:35:20;29.20;90.80
15844;DHT22;50807;52.436;13.346;2023-08-20T01:35:55;29.20;90.90
15844;DHT22;50807;52.436;13.346;2023-08-20T01:36:27;29.20;90.90
15844;DHT22;50807;52.436;13.346;2023-08-20T01:36:57;29.10;90.90
15844;DHT22;50807;52.436;13.346;2023-08-20T01:37:28;29.10;91.00
15844;DHT22;50807;52.436;13.346;2023-08-20T01:37:59;29.10;91.00
15844;DHT22;50807;52.436;13.346;2023-08-20T01:38:30;29.10;91.10
15844;DHT22;50807;52.436;13.346;2023-08-20T01:39:01;29.10;91.10
15844;DHT22;50807;52.436;13.346;2023-08-20T01:39:32;29.10;91.20
15844;DHT22;50807;52.436;13.346;2023-08-20T01:40:04;29.10;91.20
15844;DHT22;50807;52.436;13.346;2023-08-20T01:40:37;29.10;91.30
15844;DHT22;50807;52.436;13.346;2023-08-20T01:41:08;29.10;91.30
15844;DHT22;50807;52.436;13.346;2023-08-20T01:41:39;29.00;91.30
15844;DHT22;50807;52.436;13.346;2023-08-20T01:42:11;29.10;91.40
15844;DHT22;50807;52.436;13.346;2023-08-20T01:42:42;29.10;91.40
15844;DHT22;50807;52.436;13.346;2023-08-20T01:43:12;29.10;91.50
15844;DHT22;50807;52.436;13.346;2023-08-20T01:43:45;29.00;91.50
15844;DHT22;50807;52.436;13.346;2023-08-20T01:44:16;29.00;91.60
15844;DHT22;50807;52.436;13.346;2023-08-20T01:44:47;29.10;91.60
15844;DHT22;50807;52.436;13.346;2023-08-20T01:45:18;29.00;91.60
15844;DHT22;50807;52.436;13.346;2023-08-20T01:45:49;29.00;91.60
15844;DHT22;50807;52.436;13.346;2023-08-20T01:46:21;29.00;91.70
15844;DHT22;50807;52.436;13.346;2023-08-20T01:46:51;29.00;91.70
15844;DHT22;50807;52.436;13.346;2023-08-20T01:47:22;29.00;91.70
15844;DHT22;50807;52.436;13.346;2023-08-20T01:47:53;29.00;92.10
15844;DHT22;50807;52.436;13.346;2023-08-20T01:48:25;29.00;91.80
15844;DHT22;50807;52.436;13.346;2023-08-20T01:48:56;29.00;91.80
15844;DHT22;50807;52.436;13.346;2023-08-20T01:49:27;29.00;91.90
15844;DHT22;50807;52.436;13.346;2023-08-20T01:49:57;29.00;91.90
15844;DHT22;50807;52.436;13.346;2023-08-20T01:50:29;29.00;92.00
15844;DHT22;50807;52.436;13.346;2023-08-20T01:51:00;29.00;92.00
15844;DHT22;50807;52.436;13.346;2023-08-20T01:51:31;29.00;92.00
15844;DHT22;50807;52.436;13.346;2023-08-20T01:52:02;29.00;92.00
15844;DHT22;50807;52.436;13.346;2023-08-20T01:52:34;29.00;92.10
15844;DHT22;50807;52.436;13.346;2023-08-20T01:53:05;29.00;92.10
15844;DHT22;50807;52.436;13.346;2023-08-20T01:53:36;29.00;92.20
15844;DHT22;50807;52.436;13.346;2023-08-20T01:54:06;29.00;92.20
15844;DHT22;50807;52.436;13.346;2023-08-20T01:54:38;28.90;92.20
15844;DHT22;50807;52.436;13.346;2023-08-20T01:55:09;28.90;92.20
15844;DHT22;50807;52.436;13.346;2023-08-20T01:55:41;28.90;92.20
15844;DHT22;50807;52.436;13.346;2023-08-20T01:56:12;28.90;92.20
15844;DHT22;50807;52.436;13.346;2023-08-20T01:56:44;28.90;92.30
15844;DHT22;50807;52.436;13.346;2023-08-20T01:57:15;29.00;92.30
15844;DHT22;50807;52.436;13.346;2023-08-20T01:57:46;28.90;92.60
15844;DHT22;50807;52.436;13.346;2023-08-20T01:58:16;28.90;92.40
15844;DHT22;50807;52.436;13.346;2023-08-20T01:58:50;28.90;92.40
15844;DHT22;50807;52.436;13.346;2023-08-20T01:59:21;28.90;92.40
15844;DHT22;50807;52.436;13.346;2023-08-20T01:59:53;28.90;92.40
15844;DHT22;50807;52.436;13.346;2023-08-20T02:00:23;28.90;92.40
15844;DHT22;50807;52.436;13.346;2023-08-20T02:00:55;28.90;92.50
15844;DHT22;50807;52.436;13.346;2023-08-20T02:01:26;28.90;92.50
15844;DHT22;50807;52.436;13.346;2023-08-20T02:01:57;28.90;92.50
15844;DHT22;50807;52.436;13.346;2023-08-20T02:02:28;28.90;92.60
15844;DHT22;50807;52.436;13.346;2023-08-20T02:02:59;28.90;92.90
15844;DHT22;50807;52.436;13.346;2023-08-20T02:03:30;28.90;92.60
15844;DHT22;50807;52.436;13.346;2023-08-20T02:04:01;28.90;92.60
15844;DHT22;50807;52.436;13.346;2023-08-20T02:04:32;28.90;92.70
15844;DHT22;50807;52.436;13.346;2023-08-20T02:05:04;28.90;92.70
15844;DHT22;50807;52.436;13.346;2023-08-20T02:05:35;28.90;92.70
15844;DHT22;50807;52.436;13.346;2023-08-20T02:06:06;28.90;92.70
15844;DHT22;50807;52.436;13.346;2023-08-20T02:06:37;28.90;92.80
15844;DHT22;50807;52.436;13.346;2023-08-20T02:07:09;28.90;92.80
15844;DHT22;50807;52.436;13.346;2023-08-20T02:07:39;28.90;92.80
15844;DHT22;50807;52.436;13.346;2023-08-20T02:08:10;28.80;92.80
15844;DHT22;50807;52.436;13.346;2023-08-20T02:08:41;28.80;92.90
15844;DHT22;50807;52.436;13.346;2023-08-20T02:09:12;28.80;92.90
15844;DHT22;50807;52.436;13.346;2023-08-20T02:09:43;28.80;92.90
15844;DHT22;50807;52.436;13.346;2023-08-20T02:10:14;28.80;92.90
15844;DHT22;50807;52.436;13.346;2023-08-20T02:10:45;28.80;93.00
15844;DHT22;50807;52.436;13.346;2023-08-20T02:11:17;28.80;93.00
15844;DHT22;50807;52.436;13.346;2023-08-20T02:11:47;28.80;93.00
15844;DHT22;50807;52.436;13.346;2023-08-20T02:12:18;28.90;93.10
15844;DHT22;50807;52.436;13.346;2023-08-20T02:12:49;28.80;93.10
15844;DHT22;50807;52.436;13.346;2023-08-20T02:13:20;28.80;93.10
15844;DHT22;50807;52.436;13.346;2023-08-20T02:13:53;28.80;93.10
15844;DHT22;50807;52.436;13.346;2023-08-20T02:14:23;28.80;93.20
15844;DHT22;50807;52.436;13.346;2023-08-20T02:14:57;28.80;93.20
15844;DHT22;50807;52.436;13.346;2023-08-20T02:15:28;28.80;93.20
15844;DHT22;50807;52.436;13.346;2023-08-20T02:15:59;28.80;93.20
15844;DHT22;50807;52.436;13.346;2023-08-20T02:16:31;28.80;93.20
15844;DHT22;50807;52.436;13.346;2023-08-20T02:17:03;28.80;93.20
15844;DHT22;50807;52.436;13.346;2023-08-20T02:17:34;28.80;93.30
15844;DHT22;50807;52.436;13.346;2023-08-20T02:18:06;28.80;93.30
15844;DHT22;50807;52.436;13.346;2023-08-20T02:18:37;28.80;93.30
15844;DHT22;50807;52.436;13.346;2023-08-20T02:19:08;28.80;93.30
15844;DHT22;50807;52.436;13.346;2023-08-20T02:19:39;28.70;93.30
15844;DHT22;50807;52.436;13.346;2023-08-20T02:20:10;28.70;93.30
15844;DHT22;50807;52.436;13.346;2023-08-20T02:20:43;28.80;93.40
15844;DHT22;50807;52.436;13.346;2023-08-20T02:21:15;28.80;93.50
15844;DHT22;50807;52.436;13.346;2023-08-20T02:21:45;28.70;93.50
15844;DHT22;50807;52.436;13.346;2023-08-20T02:22:16;28.70;93.50
15844;DHT22;50807;52.436;13.346;2023-08-20T02:22:47;28.70;93.50
15844;DHT22;50807;52.436;13.346;2023-08-20T02:23:19;28.70;93.50
15844;DHT22;50807;52.436;13.346;2023-08-20T02:23:50;28.70;93.80
15844;DHT22;50807;52.436;13.346;2023-08-20T02:24:20;28.70;93.50
15844;DHT22;50807;52.436;13.346;2023-08-20T02:24:52;28.70;93.50
15844;DHT22;50807;52.436;13.346;2023-08-20T02:25:23;28.70;93.60
15844;DHT22;50807;52.436;13.346;2023-08-20T02:25:54;28.70;93.60
15844;DHT22;50807;52.436;13.346;2023-08-20T02:26:25;28.70;93.60
15844;DHT22;50807;52.436;13.346;2023-08-20T02:26:57;28.70;93.70
15844;DHT22;50807;52.436;13.346;2023-08-20T02:27:27;28.70;93.70
15844;DHT22;50807;52.436;13.346;2023-08-20T02:27:58;28.70;93.70
15844;DHT22;50807;52.436;13.346;2023-08-20T02:28:29;28.70;93.70
15844;DHT22;50807;52.436;13.346;2023-08-20T02:29:02;28.60;93.70
15844;DHT22;50807;52.436;13.346;2023-08-20T02:29:33;28.60;93.80
15844;DHT22;50807;52.436;13.346;2023-08-20T02:30:05;28.70;93.80
15844;DHT22;50807;52.436;13.346;2023-08-20T02:30:40;28.70;93.90
15844;DHT22;50807;52.436;13.346;2023-08-20T02:31:11;28.60;93.90
15844;DHT22;50807;52.436;13.346;2023-08-20T02:31:42;28.60;93.80
15844;DHT22;50807;52.436;13.346;2023-08-20T02:32:14;28.60;93.90
15844;DHT22;50807;52.436;13.346;2023-08-20T02:32:44;28.60;93.90
15844;DHT22;50807;52.436;13.346;2023-08-20T02:33:15;28.60;93.90
15844;DHT22;50807;52.436;13.346;2023-08-20T02:33:46;28.60;93.90
15844;DHT22;50807;52.436;13.346;2023-08-20T02:34:18;28.60;94.00
15844;DHT22;50807;52.436;13.346;2023-08-20T02:34:50;28.60;94.00
15844;DHT22;50807;52.436;13.346;2023-08-20T02:35:21;28.60;94.00
15844;DHT22;50807;52.436;13.346;2023-08-20T02:35:53;28.60;94.00
15844;DHT22;50807;52.436;13.346;2023-08-20T02:36:24;28.60;94.10
15844;DHT22;50807;52.436;13.346;2023-08-20T02:36:54;28.60;94.10
15844;DHT22;50807;52.436;13.346;2023-08-20T02:37:26;28.60;94.10
15844;DHT22;50807;52.436;13.346;2023-08-20T02:37:57;28.60;94.10
15844;DHT22;50807;52.436;13.346;2023-08-20T02:38:27;28.50;94.10
15844;DHT22;50807;52.436;13.346;2023-08-20T02:38:58;28.50;94.20
15844;DHT22;50807;52.436;13.346;2023-08-20T02:39:30;28.50;94.20
15844;DHT22;50807;52.436;13.346;2023-08-20T02:40:02;28.50;94.20
15844;DHT22;50807;52.436;13.346;2023-08-20T02:40:39;28.50;94.20
15844;DHT22;50807;52.436;13.346;2023-08-20T02:41:11;28.50;94.30
15844;DHT22;50807;52.436;13.346;2023-08-20T02:41:42;28.50;94.30
15844;DHT22;50807;52.436;13.346;2023-08-20T02:42:13;28.50;94.30
15844;DHT22;50807;52.436;13.346;2023-08-20T02:42:44;28.50;94.30
15844;DHT22;50807;52.436;13.346;2023-08-20T02:43:15;28.50;94.30
15844;DHT22;50807;52.436;13.346;2023-08-20T02:43:47;28.50;94.40
15844;DHT22;50807;52.436;13.346;2023-08-20T02:44:20;28.40;94.40
15844;DHT22;50807;52.436;13.346;2023-08-20T02:44:51;28.40;94.40
15844;DHT22;50807;52.436;13.346;2023-08-20T02:45:22;28.40;94.40
15844;DHT22;50807;52.436;13.346;2023-08-20T02:45:53;28.50;94.50
15844;DHT22;50807;52.436;13.346;2023-08-20T02:46:24;28.40;94.50
15844;DHT22;50807;52.436;13.346;2023-08-20T02:46:55;28.40;94.50
15844;DHT22;50807;52.436;13.346;2023-08-20T02:47:26;28.40;94.60
15844;DHT22;50807;52.436;13.346;2023-08-20T02:47:57;28.40;94.60
15844;DHT22;50807;52.436;13.346;2023-08-20T02:48:27;28.40;94.60
15844;DHT22;50807;52.436;13.346;2023-08-20T02:48:59;28.40;94.70
15844;DHT22;50807;52.436;13.346;2023-08-20T02:49:30;28.40;94.70
15844;DHT22;50807;52.436;13.346;2023-08-20T02:50:00;28.40;94.70
15844;DHT22;50807;52.436;13.346;2023-08-20T02:50:31;28.40;94.70
15844;DHT22;50807;52.436;13.346;2023-08-20T02:51:03;28.40;94.80
15844;DHT22;50807;52.436;13.346;2023-08-20T02:51:33;28.30;94.70
15844;DHT22;50807;52.436;13.346;2023-08-20T02:52:04;28.30;94.80
15844;DHT22;50807;52.436;13.346;2023-08-20T02:52:36;28.30;94.80
15844;DHT22;50807;52.436;13.346;2023-08-20T02:53:07;28.30;94.80
15844;DHT22;50807;52.436;13.346;2023-08-20T02:53:38;28.30;94.80
15844;DHT22;50807;52.436;13.346;2023-08-20T02:54:10;28.40;94.90
15844;DHT22;50807;52.436;13.346;2023-08-20T02:54:40;28.30;94.90
15844;DHT22;50807;52.436;13.346;2023-08-20T02:55:11;28.30;94.90
15844;DHT22;50807;52.436;13.346;2023-08-20T02:55:43;28.30;94.90
15844;DHT22;50807;52.436;13.346;2023-08-20T02:56:13;28.30;95.00
15844;DHT22;50807;52.436;13.346;2023-08-20T02:56:44;28.30;95.00
15844;DHT22;50807;52.436;13.346;2023-08-20T02:57:15;28.30;95.00
15844;DHT22;50807;52.436;13.346;2023-08-20T02:57:47;28.30;95.10
15844;DHT22;50807;52.436;13.346;2023-08-20T02:58:17;28.30;95.10
15844;DHT22;50807;52.436;13.346;2023-08-20T02:58:49;28.30;95.10
15844;DHT22;50807;52.436;13.346;2023-08-20T02:59:21;28.30;95.20
15844;DHT22;50807;52.436;13.346;2023-08-20T02:59:52;28.30;95.20
15844;DHT22;50807;52.436;13.346;2023-08-20T03:00:23;28.30;95.20
15844;DHT22;50807;52.436;13.346;2023-08-20T03:00:54;28.20;95.20
15844;DHT22;50807;52.436;13.346;2023-08-20T03:01:26;28.20;95.30
15844;DHT22;50807;52.436;13.346;2023-08-20T03:01:57;28.30;95.30
15844;DHT22;50807;52.436;13.346;2023-08-20T03:02:28;28.20;95.30
15844;DHT22;50807;52.436;13.346;2023-08-20T03:02:58;28.20;95.30
15844;DHT22;50807;52.436;13.346;2023-08-20T03:03:31;28.20;95.40
15844;DHT22;50807;52.436;13.346;2023-08-20T03:04:02;28.20;95.40
15844;DHT22;50807;52.436;13.346;2023-08-20T03:04:33;28.20;95.40
15844;DHT22;50807;52.436;13.346;2023-08-20T03:05:05;28.20;95.40
15844;DHT22;50807;52.436;13.346;2023-08-20T03:05:38;28.20;95.50
15844;DHT22;50807;52.436;13.346;2023-08-20T03:06:08;28.20;95.50
15844;DHT22;50807;52.436;13.346;2023-08-20T03:06:39;28.20;95.50
15844;DHT22;50807;52.436;13.346;2023-08-20T03:07:10;28.20;95.80
15844;DHT22;50807;52.436;13.346;2023-08-20T03:07:42;28.20;95.60
15844;DHT22;50807;52.436;13.346;2023-08-20T03:08:12;28.20;95.60
15844;DHT22;50807;52.436;13.346;2023-08-20T03:08:43;28.10;95.60
15844;DHT22;50807;52.436;13.346;2023-08-20T03:09:14;28.20;95.70
15844;DHT22;50807;52.436;13.346;2023-08-20T03:09:46;28.10;95.70
15844;DHT22;50807;52.436;13.346;2023-08-20T03:10:17;28.20;95.70
15844;DHT22;50807;52.436;13.346;2023-08-20T03:10:48;28.10;95.70
15844;DHT22;50807;52.436;13.346;2023-08-20T03:11:19;28.10;95.70
15844;DHT22;50807;52.436;13.346;2023-08-20T03:11:50;28.10;95.70
15844;DHT22;50807;52.436;13.346;2023-08-20T03:12:21;28.10;95.80
15844;DHT22;50807;52.436;13.346;2023-08-20T03:12:52;28.10;95.80
15844;DHT22;50807;52.436;13.346;2023-08-20T03:13:24;28.10;95.80
15844;DHT22;50807;52.436;13.346;2023-08-20T03:13:54;28.10;95.90
15844;DHT22;50807;52.436;13.346;2023-08-20T03:14:26;28.10;95.90
15844;DHT22;50807;52.436;13.346;2023-08-20T03:14:58;28.10;96.00
15844;DHT22;50807;52.436;13.346;2023-08-20T03:15:30;28.10;96.00
15844;DHT22;50807;52.436;13.346;2023-08-20T03:16:01;28.00;96.00
15844;DHT22;50807;52.436;13.346;2023-08-20T03:16:33;28.10;96.00
15844;DHT22;50807;52.436;13.346;2023-08-20T03:17:04;28.10;96.00
15844;DHT22;50807;52.436;13.346;2023-08-20T03:17:36;28.00;96.00
15844;DHT22;50807;52.436;13.346;2023-08-20T03:18:06;28.10;96.10
15844;DHT22;50807;52.436;13.346;2023-08-20T03:18:37;28.00;96.10
15844;DHT22;50807;52.436;13.346;2023-08-20T03:19:08;28.10;96.10
15844;DHT22;50807;52.436;13.346;2023-08-20T03:19:53;28.00;96.20
15844;DHT22;50807;52.436;13.346;2023-08-20T03:20:25;28.00;96.60
15844;DHT22;50807;52.436;13.346;2023-08-20T03:20:58;28.00;96.20